Time;durP1;ratioP1;P1;durP2;ratioP2;P2;SDS_P1;SDS_P2;PMS_P1;PMS_P2;Temp;Humidity;BMP_temperature;BMP_pressure;BME280_temperature;BME280_humidity;BME280_pressure;Samples;Min_cycle;Max_cycle;Signal;HPM_P1;HPM_P2
2023/10/12 00:00:18;;;;;;;8.70;3.50;;;;;;;11.38;44.15;100869.45;108203;1254;72472;-69
2023/10/12 00:02:48;;;;;;;7.90;3.80;;;;;;;11.37;44.24;100865.15;108039;1253;60195;-68
2023/10/12 00:05:19;;;;;;;11.20;4.10;;;;;;;11.37;44.48;100860.77;108165;1253;60197;-68
2023/10/12 00:07:49;;;;;;;7.40;3.60;;;;;;;11.37;44.52;100850.66;108159;1254;74236;-67
2023/10/12 00:12:46;;;;;;;7.10;3.60;;;;;;;11.34;44.80;100850.38;108097;1253;72466;-68
2023/10/12 00:17:55;;;;;;;6.90;3.90;;;;;;;11.33;45.02;100836.35;108122;1254;60224;-69
2023/10/12 00:20:35;;;;;;;6.80;3.30;;;;;;;11.33;45.14;100832.23;108129;1253;73921;-67
2023/10/12 00:23:10;;;;;;;8.80;3.90;;;;;;;11.32;45.40;100828.20;108042;1253;72252;-67
2023/10/12 00:25:45;;;;;;;8.80;3.60;;;;;;;11.31;45.42;100826.15;108187;1254;73060;-67
2023/10/12 00:28:19;;;;;;;9.70;4.10;;;;;;;11.31;45.36;100818.58;108121;1253;60707;-68
2023/10/12 00:30:49;;;;;;;;;;;;;;;11.32;45.33;100817.20;108257;1253;60196;-68
2023/10/12 00:33:18;;;;;;;8.30;4.00;;;;;;;11.35;45.34;100813.05;108149;1253;72637;-68
2023/10/12 00:35:51;;;;;;;10.60;3.50;;;;;;;11.34;45.51;100805.44;108117;1253;71709;-68
2023/10/12 00:38:23;;;;;;;7.60;3.60;;;;;;;11.35;45.64;100798.14;108176;1254;72663;-68
2023/10/12 00:40:55;;;;;;;9.40;3.40;;;;;;;11.37;45.59;100796.69;108081;1254;60328;-68
2023/10/12 00:43:36;;;;;;;;;;;;;;;11.39;45.63;100791.95;108029;1253;60338;-67
2023/10/12 00:51:39;;;;;;;7.60;3.50;;;;;;;11.39;45.82;100779.06;108067;1254;71451;-66
2023/10/12 00:54:10;;;;;;;7.80;3.20;;;;;;;11.39;45.89;100773.02;107984;1254;60194;-67
2023/10/12 00:56:43;;;;;;;6.70;3.30;;;;;;;11.41;46.03;100779.23;108081;1253;60456;-66
2023/10/12 00:59:12;;;;;;;8.20;3.50;;;;;;;11.41;46.12;100776.92;108170;1258;73665;-67
2023/10/12 01:01:39;;;;;;;7.50;3.70;;;;;;;11.40;46.13;100774.25;108100;1254;74477;-67
2023/10/12 01:04:15;;;;;;;7.80;3.70;;;;;;;11.40;46.11;100777.67;108136;1253;71311;-67
2023/10/12 01:06:45;;;;;;;7.10;3.10;;;;;;;11.40;46.05;100779.87;108074;1253;60425;-66
2023/10/12 01:09:19;;;;;;;5.20;3.20;;;;;;;11.40;46.25;100780.23;108190;1253;59987;-65
2023/10/12 01:11:58;;;;;;;6.00;3.10;;;;;;;11.40;46.28;100775.16;108131;1258;74072;-67
2023/10/12 01:14:29;;;;;;;7.60;3.30;;;;;;;11.39;46.32;100773.23;108132;1258;71562;-68
2023/10/12 01:17:04;;;;;;;6.20;3.10;;;;;;;11.38;46.24;100765.56;108141;1254;70727;-67
2023/10/12 01:19:33;;;;;;;6.20;3.20;;;;;;;11.37;46.38;100761.06;108183;1253;60434;-67
2023/10/12 01:22:11;;;;;;;6.10;3.10;;;;;;;11.36;46.34;100752.08;108232;1253;60302;-67
2023/10/12 01:24:57;;;;;;;9.70;3.80;;;;;;;11.34;46.48;100757.30;108070;1253;72610;-68
2023/10/12 01:27:26;;;;;;;8.60;3.50;;;;;;;11.31;46.60;100749.27;108179;1253;71920;-67
2023/10/12 01:30:40;;;;;;;8.20;3.20;;;;;;;11.29;46.72;100747.80;108101;1253;71783;-67
2023/10/12 01:32:51;;;;;;;9.30;3.70;;;;;;;11.27;46.84;100746.92;108022;1253;60291;-69
2023/10/12 01:35:26;;;;;;;12.20;3.90;;;;;;;11.24;46.92;100740.97;108122;1253;60268;-67
2023/10/12 01:38:00;;;;;;;7.00;3.50;;;;;;;11.22;47.00;100738.50;108144;1253;75952;-67
2023/10/12 01:40:53;;;;;;;9.80;4.40;;;;;;;11.20;47.07;100739.45;108145;1259;72534;-67
2023/10/12 01:43:19;;;;;;;6.10;3.00;;;;;;;11.16;47.11;100736.05;107771;1258;447766;-66
2023/10/12 01:48:49;;;;;;;7.60;3.10;;;;;;;11.13;47.17;100741.00;107848;1253;60883;-67
2023/10/12 01:51:24;;;;;;;7.90;3.60;;;;;;;11.12;47.35;100747.08;107986;1253;72625;-66
2023/10/12 01:53:55;;;;;;;6.90;2.90;;;;;;;11.11;47.36;100745.84;108081;1253;72875;-67
2023/10/12 01:56:28;;;;;;;7.00;3.30;;;;;;;11.11;47.51;100750.06;108025;1254;72471;-67
2023/10/12 01:58:56;;;;;;;7.60;3.20;;;;;;;11.09;47.57;100747.48;108017;1254;60597;-66
2023/10/12 02:01:24;;;;;;;6.30;2.80;;;;;;;11.07;47.56;100741.87;108094;1253;60365;-67
2023/10/12 02:03:55;;;;;;;6.80;3.20;;;;;;;11.05;47.70;100742.23;107982;1253;72612;-67
2023/10/12 02:06:28;;;;;;;6.70;3.20;;;;;;;11.02;47.75;100734.61;108129;1253;72853;-67
2023/10/12 02:09:08;;;;;;;7.50;3.40;;;;;;;10.99;47.99;100735.65;108045;1258;71414;-68
2023/10/12 02:11:43;;;;;;;7.70;3.30;;;;;;;10.96;48.05;100733.75;108136;1259;60510;-66
2023/10/12 02:14:23;;;;;;;6.70;3.20;;;;;;;10.94;48.09;100735.34;108143;1253;59652;-67
2023/10/12 02:16:54;;;;;;;8.60;3.30;;;;;;;10.91;48.22;100735.95;108063;1253;73830;-66
2023/10/12 02:20:11;;;;;;;9.60;3.70;;;;;;;10.88;48.25;100737.48;108117;1253;72700;-68
2023/10/12 02:22:20;;;;;;;6.60;3.10;;;;;;;10.86;48.37;100735.48;108064;1253;73188;-66
2023/10/12 02:24:57;;;;;;;10.90;3.30;;;;;;;10.83;48.53;100736.27;108126;1253;60412;-67
2023/10/12 02:27:26;;;;;;;8.10;3.40;;;;;;;10.82;48.51;100732.94;108064;1253;60351;-67
2023/10/12 02:29:56;;;;;;;9.80;3.90;;;;;;;10.80;48.62;100736.30;108063;1253;73863;-66
2023/10/12 02:32:24;;;;;;;5.50;2.90;;;;;;;10.79;48.73;100731.58;108128;1253;72943;-67
2023/10/12 02:35:11;;;;;;;7.80;3.40;;;;;;;10.78;48.77;100734.61;108145;1253;71450;-68
2023/10/12 02:37:39;;;;;;;6.30;3.00;;;;;;;10.77;49.06;100723.39;108048;1253;60444;-67
2023/10/12 02:40:09;;;;;;;11.20;3.70;;;;;;;10.76;48.96;100720.17;108122;1253;60372;-67
2023/10/12 02:42:45;;;;;;;8.20;3.00;;;;;;;10.74;49.14;100725.23;108164;1253;73897;-68
2023/10/12 02:47:41;;;;;;;10.90;3.30;;;;;;;10.71;49.29;100718.15;108003;1258;72640;-67
2023/10/12 02:52:37;;;;;;;8.90;3.10;;;;;;;10.67;49.43;100711.83;108154;1253;61124;-67
2023/10/12 02:55:26;;;;;;;11.00;3.50;;;;;;;10.66;49.37;100704.70;108140;1253;73880;-67
2023/10/12 02:58:06;;;;;;;9.30;3.40;;;;;;;10.66;49.52;100702.03;108145;1253;71587;-68
2023/10/12 03:00:35;;;;;;;7.60;3.60;;;;;;;10.65;49.58;100698.98;108165;1253;71278;-67
2023/10/12 03:05:51;;;;;;;7.60;3.50;;;;;;;10.63;49.64;100692.11;108106;1257;60264;-67
2023/10/12 03:08:20;;;;;;;9.70;3.20;;;;;;;10.62;49.75;100688.36;108081;1253;72668;-67
2023/10/12 03:11:08;;;;;;;9.70;3.60;;;;;;;10.60;49.84;100693.64;108129;1253;72844;-66
2023/10/12 03:13:38;;;;;;;7.90;3.30;;;;;;;10.59;49.97;100686.95;108066;1254;71004;-66
2023/10/12 03:18:53;;;;;;;8.40;3.70;;;;;;;10.59;50.02;100677.55;108156;1253;60173;-67
2023/10/12 03:21:23;;;;;;;9.00;3.90;;;;;;;10.58;50.05;100680.10;108137;1253;73919;-67
2023/10/12 03:23:50;;;;;;;8.00;3.20;;;;;;;10.58;50.14;100681.48;108130;1253;72462;-68
2023/10/12 03:26:24;;;;;;;8.60;3.70;;;;;;;10.58;50.25;100682.61;108042;1253;72709;-67
2023/10/12 03:37:14;;;;;;;8.70;3.50;;;;;;;10.56;50.42;100673.24;107918;1254;71636;-67
2023/10/12 03:45:07;;;;;;;8.00;3.40;;;;;;;10.52;50.56;100675.08;108095;1253;60129;-67
2023/10/12 03:47:46;;;;;;;8.10;3.60;;;;;;;10.50;50.76;100674.38;108178;1253;72364;-67
2023/10/12 03:50:17;;;;;;;8.90;4.10;;;;;;;10.49;50.95;100669.49;108120;1253;72746;-67
2023/10/12 03:52:52;;;;;;;8.40;3.80;;;;;;;10.47;50.96;100668.58;108089;1253;70069;-67
2023/10/12 03:55:25;;;;;;;8.40;3.90;;;;;;;10.47;51.11;100669.43;108142;1253;60502;-66
2023/10/12 03:58:00;;;;;;;6.30;3.20;;;;;;;10.47;51.11;100671.48;108173;1253;60177;-66
2023/10/12 04:00:34;;;;;;;6.80;3.40;;;;;;;10.47;51.16;100667.84;108152;1253;72835;-67
2023/10/12 04:03:13;;;;;;;8.10;3.50;;;;;;;10.46;51.24;100668.79;108207;1253;71352;-67
2023/10/12 04:05:54;;;;;;;9.20;3.60;;;;;;;10.45;51.28;100667.11;108109;1254;71246;-66
2023/10/12 04:16:27;;;;;;;7.60;3.70;;;;;;;10.42;51.57;100665.11;108105;1253;72708;-68
2023/10/12 04:21:28;;;;;;;8.30;3.90;;;;;;;10.40;51.76;100661.88;108103;1253;60460;-67
2023/10/12 04:34:14;;;;;;;10.60;4.10;;;;;;;10.44;52.11;100669.67;108163;1253;60441;-68
2023/10/12 04:47:05;;;;;;;8.60;3.70;;;;;;;10.55;52.32;100672.86;108084;1253;59633;-67
2023/10/12 04:57:34;;;;;;;8.60;3.70;;;;;;;10.70;52.54;100672.41;108042;1254;72724;-68
2023/10/12 05:02:52;;;;;;;10.10;3.70;;;;;;;10.80;52.38;100665.37;108193;1257;60959;-67
2023/10/12 05:07:54;;;;;;;8.70;4.00;;;;;;;10.93;52.10;100662.31;108094;1253;71148;-68
2023/10/12 05:10:28;;;;;;;8.30;4.00;;;;;;;11.02;52.28;100664.80;108038;1253;71198;-66
2023/10/12 05:13:04;;;;;;;9.60;3.90;;;;;;;11.09;52.16;100661.36;108251;1253;60547;-67
2023/10/12 05:16:16;;;;;;;8.90;3.90;;;;;;;11.17;52.01;100665.31;108186;1253;60311;-67
2023/10/12 05:18:24;;;;;;;9.70;3.80;;;;;;;11.26;51.92;100668.09;108089;1252;73111;-67
2023/10/12 05:20:52;;;;;;;10.40;4.10;;;;;;;11.34;51.98;100666.59;108203;1253;72610;-67
2023/10/12 05:23:21;;;;;;;8.60;3.50;;;;;;;11.41;51.84;100668.94;108173;1253;72236;-69
2023/10/12 05:28:37;;;;;;;9.70;3.70;;;;;;;11.58;51.65;100671.90;108116;1253;60429;-67
2023/10/12 05:33:43;;;;;;;9.80;4.10;;;;;;;11.74;51.51;100669.84;108177;1253;71391;-67
2023/10/12 05:36:12;;;;;;;7.10;3.80;;;;;;;11.82;51.36;100668.05;108183;1259;70470;-67
2023/10/12 05:38:49;;;;;;;7.80;3.80;;;;;;;11.90;51.14;100668.64;108098;1253;60620;-68
2023/10/12 05:44:03;;;;;;;8.60;4.20;;;;;;;12.07;50.97;100668.15;108132;1253;73872;-67
2023/10/12 05:46:34;;;;;;;10.20;4.10;;;;;;;12.14;50.94;100657.46;108093;1253;71836;-67
2023/10/12 05:49:11;;;;;;;7.30;3.40;;;;;;;12.22;50.77;100660.96;108094;1254;72725;-68
2023/10/12 05:51:45;;;;;;;10.60;3.90;;;;;;;12.28;50.67;100657.11;108070;1253;60473;-67
2023/10/12 05:54:19;;;;;;;9.40;3.90;;;;;;;12.34;50.69;100655.89;108107;1253;60255;-67
2023/10/12 05:56:51;;;;;;;7.40;3.30;;;;;;;12.41;50.56;100652.46;108094;1253;73906;-66
2023/10/12 05:59:20;;;;;;;9.50;4.10;;;;;;;12.51;50.55;100656.51;108093;1253;72597;-67
2023/10/12 06:01:51;;;;;;;8.00;3.50;;;;;;;12.57;50.39;100660.24;108111;1253;71226;-66
2023/10/12 06:04:19;;;;;;;8.20;3.50;;;;;;;12.64;50.33;100663.79;108106;1253;60365;-66
2023/10/12 06:06:51;;;;;;;7.90;3.70;;;;;;;12.70;50.37;100664.06;108180;1253;60624;-67
2023/10/12 06:09:24;;;;;;;6.80;3.70;;;;;;;12.76;50.36;100662.61;108136;1253;73868;-68
2023/10/12 06:11:53;;;;;;;7.50;3.80;;;;;;;12.80;50.30;100655.69;108040;1253;72710;-69
2023/10/12 06:14:22;;;;;;;8.50;3.70;;;;;;;12.84;50.15;100652.36;108026;1254;72751;-65
2023/10/12 06:16:55;;;;;;;7.70;3.90;;;;;;;12.89;50.16;100651.23;108161;1253;60438;-69
2023/10/12 06:19:28;;;;;;;8.80;3.90;;;;;;;12.95;50.18;100658.84;108126;1253;60437;-67
2023/10/12 06:21:58;;;;;;;9.30;4.30;;;;;;;13.01;50.11;100659.64;108091;1253;72644;-67
2023/10/12 06:24:33;;;;;;;7.80;3.50;;;;;;;13.05;50.13;100657.22;108088;1253;72737;-67
2023/10/12 06:27:22;;;;;;;7.80;4.10;;;;;;;13.11;50.27;100650.56;108099;1253;71756;-67
2023/10/12 06:29:52;;;;;;;6.60;3.70;;;;;;;13.17;50.02;100651.18;108128;1254;62298;-67
2023/10/12 06:32:31;;;;;;;8.20;3.90;;;;;;;13.21;49.97;100650.53;108181;1253;60308;-68
2023/10/12 06:35:13;;;;;;;7.10;3.70;;;;;;;13.25;50.03;100646.95;108041;1253;72571;-68
2023/10/12 06:45:57;;;;;;;11.40;3.70;;;;;;;13.56;50.16;100647.35;108074;1254;60124;-67
2023/10/12 06:51:03;;;;;;;;;;;;;;;13.74;49.74;100639.48;108116;1253;72791;-67
2023/10/12 06:53:35;;;;;;;7.50;3.70;;;;;;;13.81;49.90;100646.54;108002;1255;71550;-67
2023/10/12 07:02:10;;;;;;;9.00;3.70;;;;;;;14.17;49.47;100635.87;107686;1259;72203;-68
2023/10/12 07:04:53;;;;;;;11.30;3.70;;;;;;;14.30;49.32;100639.70;107647;1260;72197;-67
2023/10/12 07:07:40;;;;;;;8.90;3.70;;;;;;;14.44;49.26;100633.10;107901;1254;71424;-66
2023/10/12 07:12:47;;;;;;;9.40;4.40;;;;;;;14.71;48.72;100633.96;108192;1253;60293;-67
2023/10/12 07:15:21;;;;;;;9.10;3.90;;;;;;;14.84;48.59;100627.05;108033;1253;75016;-68
2023/10/12 07:17:49;;;;;;;7.30;3.40;;;;;;;14.96;48.62;100628.64;108117;1253;72442;-67
2023/10/12 07:23:14;;;;;;;8.50;3.20;;;;;;;15.21;48.53;100620.23;108090;1253;60307;-67
2023/10/12 07:25:43;;;;;;;11.20;3.70;;;;;;;15.37;48.28;100619.01;108000;1255;60381;-67
2023/10/12 07:33:59;;;;;;;8.60;3.80;;;;;;;15.78;47.55;100601.22;108143;1258;71466;-67
2023/10/12 07:36:52;;;;;;;6.90;3.50;;;;;;;15.90;47.25;100601.16;108063;1253;60425;-67
2023/10/12 07:39:22;;;;;;;9.40;3.80;;;;;;;16.04;47.25;100595.52;108091;1253;60435;-69
2023/10/12 07:42:39;;;;;;;9.40;3.70;;;;;;;16.17;46.97;100592.36;108052;1253;73898;-67
2023/10/12 07:44:42;;;;;;;9.10;3.60;;;;;;;16.32;46.64;100589.31;108049;1253;74309;-67
2023/10/12 07:47:19;;;;;;;8.60;3.80;;;;;;;16.37;46.71;100585.24;108174;1254;71472;-67
2023/10/12 07:49:57;;;;;;;9.10;3.60;;;;;;;16.52;46.55;100585.64;108076;1253;60102;-68
2023/10/12 07:55:12;;;;;;;9.60;3.40;;;;;;;16.78;46.05;100581.98;108028;1253;72454;-67
2023/10/12 07:57:40;;;;;;;8.10;3.70;;;;;;;16.89;45.90;100579.98;108055;1259;72552;-67
2023/10/12 08:08:41;;;;;;;8.80;3.80;;;;;;;17.28;45.62;100580.85;108085;1254;72574;-67
2023/10/12 08:15:56;;;;;;;6.50;3.90;;;;;;;17.59;44.97;100569.89;108078;1253;60550;-67
2023/10/12 08:23:57;;;;;;;8.20;3.80;;;;;;;17.82;44.33;100555.79;108120;1253;71374;-66
2023/10/12 08:32:11;;;;;;;6.50;3.90;;;;;;;17.93;43.99;100559.01;108056;1253;61101;-67
2023/10/12 08:37:18;;;;;;;9.50;4.40;;;;;;;17.84;44.73;100563.83;108168;1253;72496;-68
2023/10/12 08:39:50;;;;;;;8.40;4.10;;;;;;;17.87;44.79;100566.22;108092;1253;71376;-68
2023/10/12 08:42:36;;;;;;;9.20;4.50;;;;;;;17.94;44.59;100569.05;108057;1252;60612;-68
2023/10/12 08:45:09;;;;;;;10.20;4.40;;;;;;;17.97;44.38;100568.26;108044;1253;60391;-68
2023/10/12 08:50:25;;;;;;;10.60;4.10;;;;;;;18.21;43.77;100562.35;107902;1253;72877;-66
2023/10/12 08:52:53;;;;;;;7.80;4.40;;;;;;;18.35;44.06;100555.73;107960;1257;71460;-67
2023/10/12 08:55:24;;;;;;;7.40;3.80;;;;;;;18.50;43.96;100554.10;108021;1253;60442;-67
2023/10/12 08:57:55;;;;;;;8.70;3.70;;;;;;;18.67;43.48;100544.25;107984;1258;60174;-67
2023/10/12 09:03:24;;;;;;;9.10;4.20;;;;;;;18.95;42.98;100540.96;108130;1253;71886;-68
2023/10/12 09:05:54;;;;;;;8.80;4.00;;;;;;;19.06;42.68;100538.37;108153;1253;72468;-67
2023/10/12 09:13:54;;;;;;;8.10;4.20;;;;;;;19.38;42.71;100513.02;107663;1259;72354;-66
2023/10/12 09:16:22;;;;;;;9.00;4.00;;;;;;;19.50;42.91;100510.23;108002;1253;72232;-66
2023/10/12 09:18:57;;;;;;;6.40;3.60;;;;;;;19.62;42.67;100505.60;108056;1253;72784;-67
2023/10/12 09:21:57;;;;;;;7.90;3.70;;;;;;;19.76;42.16;100502.29;108085;1254;60358;-66
2023/10/12 09:24:35;;;;;;;7.00;3.60;;;;;;;19.92;41.73;100490.06;108098;1253;60122;-66
2023/10/12 09:27:14;;;;;;;8.30;3.40;;;;;;;20.04;41.27;100484.84;108119;1253;73885;-67
2023/10/12 09:30:01;;;;;;;9.30;3.80;;;;;;;20.17;41.13;100479.81;108161;1253;74289;-66
2023/10/12 09:32:32;;;;;;;9.60;3.60;;;;;;;20.31;40.93;100479.23;108158;1253;70883;-67
2023/10/12 09:37:43;;;;;;;8.10;4.00;;;;;;;20.55;40.17;100467.61;108138;1253;60322;-67
2023/10/12 09:43:16;;;;;;;6.90;3.60;;;;;;;20.76;40.17;100459.40;107597;1262;71363;-66
2023/10/12 09:45:47;;;;;;;9.70;3.70;;;;;;;20.89;40.11;100458.23;107609;1255;72885;-66
2023/10/12 09:48:26;;;;;;;9.90;3.90;;;;;;;20.98;39.27;100449.05;107929;1254;60337;-68
2023/10/12 09:50:58;;;;;;;6.90;3.20;;;;;;;21.06;39.53;100442.98;108128;1253;60300;-68
2023/10/12 09:53:37;;;;;;;10.00;4.00;;;;;;;21.18;39.58;100444.52;108133;1253;73924;-67
2023/10/12 09:56:11;;;;;;;8.60;3.50;;;;;;;21.28;39.15;100442.60;108138;1253;72717;-67
2023/10/12 09:58:51;;;;;;;7.20;3.50;;;;;;;21.41;39.00;100429.71;108123;1253;72751;-66
2023/10/12 10:07:17;;;;;;;9.70;3.70;;;;;;;21.68;38.29;100427.67;108135;1253;72830;-67
2023/10/12 10:09:54;;;;;;;8.10;3.50;;;;;;;21.72;38.14;100414.94;108022;1258;72471;-66
2023/10/12 10:12:27;;;;;;;8.40;3.70;;;;;;;21.83;38.18;100416.23;108120;1253;71790;-67
2023/10/12 10:15:10;;;;;;;8.00;3.40;;;;;;;21.95;37.97;100413.91;108203;1253;60303;-68
2023/10/12 10:17:47;;;;;;;8.40;4.10;;;;;;;22.07;37.87;100412.30;108125;1253;59495;-68
2023/10/12 10:23:01;;;;;;;8.60;3.70;;;;;;;22.10;37.61;100393.83;108121;1253;71997;-69
2023/10/12 10:25:42;;;;;;;6.60;3.40;;;;;;;22.15;37.85;100393.40;108092;1253;74811;-67
2023/10/12 10:28:18;;;;;;;7.10;3.60;;;;;;;22.23;37.66;100385.66;108039;1254;60304;-66
2023/10/12 10:30:49;;;;;;;7.40;3.40;;;;;;;22.26;37.07;100383.41;108028;1253;59178;-67
2023/10/12 10:33:22;;;;;;;;;;;;;;;22.27;37.41;100383.02;108029;1253;74266;-67
2023/10/12 10:36:01;;;;;;;9.40;3.50;;;;;;;22.30;37.54;100386.73;108025;1253;73447;-66
2023/10/12 10:38:32;;;;;;;10.00;3.50;;;;;;;22.37;37.55;100377.23;108241;1254;71825;-66
2023/10/12 10:41:22;;;;;;;8.90;3.30;;;;;;;22.46;37.43;100371.45;108121;1253;60102;-67
2023/10/12 10:43:53;;;;;;;8.80;3.70;;;;;;;22.59;37.44;100370.20;108037;1253;60239;-67
2023/10/12 10:46:26;;;;;;;7.30;3.40;;;;;;;22.72;37.39;100371.45;108062;1253;72652;-67
2023/10/12 10:48:55;;;;;;;5.60;3.10;;;;;;;22.83;36.62;100372.17;108123;1253;71236;-67
2023/10/12 10:51:28;;;;;;;8.40;3.90;;;;;;;22.90;36.60;100371.04;108181;1253;72848;-66
2023/10/12 10:53:56;;;;;;;7.30;3.40;;;;;;;22.93;36.14;100365.18;108236;1253;61544;-67
2023/10/12 10:56:41;;;;;;;9.10;3.70;;;;;;;22.96;36.15;100370.30;108093;1254;60438;-68
2023/10/12 10:59:12;;;;;;;6.60;3.10;;;;;;;22.99;36.05;100357.88;108035;1254;74137;-64
2023/10/12 11:01:46;;;;;;;10.20;3.90;;;;;;;23.00;35.82;100362.04;108166;1253;71579;-67
2023/10/12 11:07:03;;;;;;;6.30;3.40;;;;;;;22.95;36.05;100352.16;108201;1253;60340;-67
2023/10/12 11:09:54;;;;;;;7.60;3.50;;;;;;;22.90;36.09;100346.87;108180;1253;60539;-68
2023/10/12 11:12:26;;;;;;;8.50;3.50;;;;;;;22.90;36.34;100346.61;108128;1253;72879;-67
2023/10/12 11:17:41;;;;;;;7.90;4.00;;;;;;;23.07;36.25;100328.05;108172;1253;73245;-67
2023/10/12 11:20:40;;;;;;;12.00;3.90;;;;;;;23.15;35.98;100326.27;108130;1253;60452;-67
2023/10/12 11:23:12;;;;;;;8.30;3.30;;;;;;;23.25;36.06;100314.94;108049;1253;60605;-65
2023/10/12 11:25:41;;;;;;;9.60;4.20;;;;;;;23.31;35.74;100314.95;108074;1253;74000;-66
2023/10/12 11:28:22;;;;;;;10.00;3.60;;;;;;;23.38;35.82;100320.25;108109;1253;75037;-69
2023/10/12 11:31:01;;;;;;;7.60;3.40;;;;;;;23.46;36.14;100315.42;108114;1253;73629;-67
2023/10/12 11:33:30;;;;;;;6.70;3.10;;;;;;;23.56;36.21;100308.11;108126;1254;59223;-68
2023/10/12 11:36:03;;;;;;;7.50;3.80;;;;;;;23.67;36.16;100315.02;108146;1254;59641;-66
2023/10/12 11:38:31;;;;;;;7.70;3.70;;;;;;;23.73;35.50;100311.92;108092;1253;72634;-65
2023/10/12 11:41:11;;;;;;;12.00;4.10;;;;;;;23.72;35.37;100305.03;108131;1253;72930;-67
2023/10/12 11:43:49;;;;;;;7.90;3.40;;;;;;;23.73;35.55;100294.23;108081;1253;71805;-66
2023/10/12 11:46:23;;;;;;;5.60;3.10;;;;;;;23.72;35.50;100302.94;108248;1253;60434;-67
2023/10/12 11:49:03;;;;;;;6.60;3.10;;;;;;;23.70;35.91;100296.96;108180;1253;60473;-68
2023/10/12 11:51:31;;;;;;;8.90;3.90;;;;;;;23.65;35.94;100289.71;108160;1253;73874;-67
2023/10/12 11:53:59;;;;;;;7.30;3.10;;;;;;;23.63;35.96;100290.61;108145;1254;71563;-66
2023/10/12 11:56:26;;;;;;;6.80;3.30;;;;;;;23.66;35.97;100289.91;108124;1255;71192;-67
2023/10/12 11:58:54;;;;;;;6.70;3.10;;;;;;;23.72;35.99;100287.89;108039;1254;60415;-67
2023/10/12 12:01:22;;;;;;;9.00;3.10;;;;;;;23.79;35.75;100277.87;107998;1254;60335;-67
2023/10/12 12:03:54;;;;;;;9.20;3.40;;;;;;;23.84;35.04;100280.40;108000;1253;75759;-67
2023/10/12 12:06:22;;;;;;;;;;;;;;;23.89;34.88;100275.38;107992;1253;73009;-67
2023/10/12 12:08:51;;;;;;;7.90;3.10;;;;;;;23.91;34.65;100278.54;108068;1253;72783;-67
2023/10/12 12:11:26;;;;;;;8.20;3.50;;;;;;;23.92;35.00;100274.27;108066;1253;60300;-67
2023/10/12 12:13:53;;;;;;;9.30;3.40;;;;;;;23.90;34.90;100271.50;108125;1253;60323;-67
2023/10/12 12:16:21;;;;;;;8.30;3.20;;;;;;;23.86;34.96;100271.27;108155;1253;72568;-68
2023/10/12 12:18:51;;;;;;;10.00;3.80;;;;;;;23.81;34.80;100266.70;108079;1253;71828;-68
2023/10/12 12:21:29;;;;;;;8.60;3.40;;;;;;;23.73;34.90;100262.45;108069;1253;72021;-68
2023/10/12 12:24:01;;;;;;;7.70;3.30;;;;;;;23.63;35.11;100261.79;108083;1253;60379;-68
2023/10/12 12:26:33;;;;;;;10.40;3.60;;;;;;;23.53;35.11;100258.17;108095;1259;60591;-68
2023/10/12 12:29:05;;;;;;;7.10;3.40;;;;;;;23.41;35.37;100260.00;108111;1253;72617;-67
2023/10/12 12:31:33;;;;;;;;;;;;;;;23.36;35.61;100255.13;108141;1253;71790;-70
2023/10/12 12:34:05;;;;;;;5.70;3.00;;;;;;;23.34;35.72;100254.45;108208;1253;72492;-68
2023/10/12 12:36:34;;;;;;;11.20;3.80;;;;;;;23.34;35.89;100254.75;108140;1256;60339;-67
2023/10/12 12:39:09;;;;;;;11.80;4.10;;;;;;;23.35;35.80;100257.97;108004;1253;60357;-67
2023/10/12 12:41:37;;;;;;;8.20;3.50;;;;;;;23.30;35.60;100245.92;108191;1253;73935;-67
2023/10/12 12:44:08;;;;;;;8.50;3.40;;;;;;;23.26;35.56;100247.31;108198;1253;71581;-66
2023/10/12 12:46:37;;;;;;;6.90;3.30;;;;;;;23.25;35.75;100240.81;108136;1256;71412;-67
2023/10/12 12:49:06;;;;;;;10.80;3.90;;;;;;;23.25;35.61;100233.19;108109;1253;60951;-67
2023/10/12 12:51:34;;;;;;;8.20;3.20;;;;;;;23.25;35.56;100231.70;108149;1253;60543;-67
2023/10/12 12:54:02;;;;;;;9.20;3.70;;;;;;;23.25;35.67;100230.61;108186;1253;75307;-65
2023/10/12 12:56:30;;;;;;;8.10;3.30;;;;;;;23.24;35.76;100227.40;108172;1253;72963;-67
2023/10/12 12:58:57;;;;;;;6.50;3.40;;;;;;;23.25;35.70;100224.77;108172;1257;74914;-66
2023/10/12 13:01:27;;;;;;;10.30;4.20;;;;;;;23.25;35.77;100220.42;108137;1254;60445;-67
2023/10/12 13:03:55;;;;;;;9.70;3.70;;;;;;;23.25;35.89;100215.42;108246;1254;60005;-67
2023/10/12 13:06:24;;;;;;;10.40;4.00;;;;;;;23.22;35.84;100214.11;108134;1259;73895;-67
2023/10/12 13:08:52;;;;;;;10.70;3.90;;;;;;;23.17;35.95;100214.54;108174;1253;72907;-67
2023/10/12 13:11:20;;;;;;;9.10;4.20;;;;;;;23.13;36.08;100213.20;108050;1258;72710;-66
2023/10/12 13:13:48;;;;;;;9.30;3.80;;;;;;;23.10;36.16;100210.62;108128;1254;61018;-67
2023/10/12 13:16:17;;;;;;;11.20;3.70;;;;;;;23.07;36.52;100216.00;108178;1253;60571;-67
2023/10/12 13:18:46;;;;;;;8.90;3.60;;;;;;;23.00;36.39;100205.37;108109;1253;73830;-67
2023/10/12 13:21:15;;;;;;;9.40;3.70;;;;;;;22.96;36.74;100198.34;107871;1259;72987;-66
2023/10/12 13:23:44;;;;;;;9.80;3.90;;;;;;;22.92;36.66;100200.47;108097;1253;72466;-67
2023/10/12 13:26:14;;;;;;;7.50;3.40;;;;;;;22.86;37.12;100195.11;108105;1257;60995;-69
2023/10/12 13:28:42;;;;;;;10.50;3.70;;;;;;;22.82;36.97;100192.89;108095;1254;60251;-65
2023/10/12 13:31:11;;;;;;;6.20;3.00;;;;;;;22.76;37.24;100193.87;108194;1253;73639;-67
2023/10/12 13:33:41;;;;;;;6.90;3.20;;;;;;;22.72;37.16;100195.58;108058;1253;73144;-67
2023/10/12 13:36:10;;;;;;;9.70;3.30;;;;;;;22.68;37.43;100197.42;108105;1258;72676;-67
2023/10/12 13:38:39;;;;;;;7.30;3.10;;;;;;;22.64;37.33;100197.14;108034;1257;60284;-68
2023/10/12 13:41:10;;;;;;;6.50;3.20;;;;;;;22.58;37.42;100191.48;108038;1255;61058;-67
2023/10/12 13:43:39;;;;;;;8.70;3.40;;;;;;;22.56;37.46;100187.67;107842;1253;237604;-68
2023/10/12 13:46:12;;;;;;;9.30;3.40;;;;;;;22.50;37.24;100179.88;108123;1253;72887;-67
2023/10/12 13:48:40;;;;;;;7.60;3.30;;;;;;;22.44;37.48;100178.30;108092;1253;71547;-67
2023/10/12 13:51:17;;;;;;;6.40;2.80;;;;;;;22.41;37.74;100177.94;108117;1253;60331;-67
2023/10/12 13:53:46;;;;;;;8.60;3.20;;;;;;;22.51;37.55;100182.34;108078;1253;61850;-67
2023/10/12 13:56:13;;;;;;;9.40;3.20;;;;;;;22.66;37.57;100182.04;108127;1254;74121;-68
2023/10/12 13:58:44;;;;;;;8.00;3.40;;;;;;;22.63;37.56;100182.65;108107;1257;72958;-68
2023/10/12 14:01:15;;;;;;;6.80;3.20;;;;;;;22.54;37.47;100179.70;108139;1258;72549;-69
2023/10/12 14:06:38;;;;;;;7.10;3.10;;;;;;;22.06;38.32;100190.79;107878;1254;60408;-68
2023/10/12 14:09:11;;;;;;;7.80;3.30;;;;;;;21.98;38.51;100202.14;108037;1253;74017;-68
2023/10/12 14:11:39;;;;;;;8.50;3.10;;;;;;;21.92;38.85;100209.00;108192;1253;72524;-68
2023/10/12 14:14:09;;;;;;;9.80;3.80;;;;;;;21.85;38.74;100213.30;108152;1255;72863;-68
2023/10/12 14:16:37;;;;;;;8.80;3.10;;;;;;;21.79;38.96;100205.89;108141;1253;60828;-68
2023/10/12 14:19:06;;;;;;;8.10;3.20;;;;;;;21.74;38.88;100208.23;108123;1259;60210;-66
2023/10/12 14:21:39;;;;;;;8.40;3.30;;;;;;;21.69;39.11;100209.63;108088;1254;72884;-68
2023/10/12 14:24:07;;;;;;;9.50;3.10;;;;;;;21.64;39.28;100210.71;108106;1258;71808;-67
2023/10/12 14:26:37;;;;;;;11.30;3.10;;;;;;;21.59;39.40;100209.22;108199;1253;73202;-69
2023/10/12 14:29:08;;;;;;;10.30;3.00;;;;;;;21.53;39.28;100207.41;108194;1256;60506;-67
2023/10/12 14:31:36;;;;;;;7.60;3.00;;;;;;;21.49;39.43;100207.49;108176;1255;60335;-68
2023/10/12 14:34:06;;;;;;;6.70;3.00;;;;;;;21.45;39.63;100204.27;108074;1253;72644;-68
2023/10/12 14:36:34;;;;;;;8.20;3.30;;;;;;;21.41;39.82;100206.79;108123;1254;75079;-68
2023/10/12 14:39:04;;;;;;;5.30;3.00;;;;;;;21.37;39.72;100200.66;108144;1255;72670;-68
2023/10/12 14:41:35;;;;;;;7.60;2.90;;;;;;;21.32;39.76;100199.64;108143;1254;60420;-68
2023/10/12 14:44:03;;;;;;;8.00;3.20;;;;;;;21.28;39.64;100201.99;108109;1259;60553;-68